createdAt,value
2023-02-19T00:06:28.413Z,12.08
2023-02-19T00:16:29.403Z,11.93
2023-02-19T00:26:30.342Z,11.86
2023-02-19T00:36:31.391Z,11.79
2023-02-19T00:46:32.436Z,11.73
2023-02-19T00:56:33.350Z,11.73
2023-02-19T01:06:34.238Z,11.71
2023-02-19T01:16:35.091Z,11.59
2023-02-19T01:26:36.193Z,11.59
2023-02-19T01:36:37.024Z,11.52
2023-02-19T01:46:37.967Z,11.43
2023-02-19T01:56:38.846Z,11.50
2023-02-19T02:06:39.880Z,11.35
2023-02-19T02:16:40.837Z,11.29
2023-02-19T02:26:41.563Z,11.37
2023-02-19T02:36:42.507Z,11.35
2023-02-19T02:46:43.235Z,11.31
2023-02-19T02:56:44.146Z,11.26
2023-02-19T03:06:44.983Z,11.35
2023-02-19T03:16:45.863Z,11.29
2023-02-19T03:26:46.727Z,11.20
2023-02-19T03:36:47.594Z,11.20
2023-02-19T03:46:48.580Z,11.19
2023-02-19T03:56:49.561Z,11.21
2023-02-19T04:06:50.374Z,11.21
2023-02-19T04:16:51.296Z,11.18
2023-02-19T04:26:52.109Z,11.11
2023-02-19T04:36:52.869Z,11.08
2023-02-19T04:46:53.701Z,10.99
2023-02-19T04:56:55.755Z,10.93
2023-02-19T05:06:55.481Z,10.96
2023-02-19T05:16:56.288Z,11.00
2023-02-19T05:26:58.600Z,11.04
2023-02-19T05:36:58.174Z,11.13
2023-02-19T05:46:59.051Z,11.10
2023-02-19T06:07:00.843Z,11.04
2023-02-19T06:17:01.743Z,10.94
2023-02-19T06:27:02.723Z,11.05
2023-02-19T06:37:03.551Z,11.16
2023-02-19T06:47:04.473Z,11.18
2023-02-19T06:57:05.453Z,11.27
2023-02-19T07:07:06.520Z,11.24
2023-02-19T07:17:07.332Z,11.29
2023-02-19T07:27:08.332Z,11.28
2023-02-19T07:37:10.752Z,11.38
2023-02-19T07:47:10.235Z,11.51
2023-02-19T07:57:11.154Z,11.65
2023-02-19T08:07:12.083Z,11.76
2023-02-19T08:17:13.090Z,11.81
2023-02-19T08:27:14.068Z,11.75
2023-02-19T08:37:15.037Z,11.56
2023-02-19T08:47:15.918Z,11.36
2023-02-19T08:57:16.884Z,11.39
2023-02-19T09:07:18.909Z,11.27
2023-02-19T09:17:18.782Z,11.01
2023-02-19T09:27:19.771Z,10.88
2023-02-19T09:37:21.046Z,10.78
2023-02-19T09:47:22.112Z,11.08
2023-02-19T09:57:22.688Z,11.48
2023-02-19T10:07:23.900Z,11.73
2023-02-19T10:17:25.093Z,13.76
2023-02-19T10:27:25.996Z,13.88
2023-02-19T10:37:27.071Z,13.16
2023-02-19T10:47:28.075Z,12.91
2023-02-19T10:57:28.948Z,13.30
2023-02-19T11:07:34.206Z,13.69
2023-02-19T11:17:31.053Z,13.92
2023-02-19T11:27:33.305Z,14.13
2023-02-19T11:37:33.497Z,14.45
2023-02-19T11:47:36.308Z,14.48
2023-02-19T11:57:35.865Z,14.28
2023-02-19T12:07:36.779Z,14.38
2023-02-19T12:17:40.169Z,14.39
2023-02-19T12:37:40.303Z,14.71
2023-02-19T12:47:41.655Z,14.83
2023-02-19T12:57:42.570Z,14.18
2023-02-19T13:07:44.101Z,13.93
2023-02-19T13:17:44.986Z,14.01
2023-02-19T13:37:46.958Z,13.62
2023-02-19T13:47:48.112Z,13.35
2023-02-19T13:57:49.433Z,13.20
2023-02-19T14:17:51.216Z,13.10
2023-02-19T14:27:54.386Z,12.90
2023-02-19T14:37:53.249Z,13.00
2023-02-19T14:47:55.522Z,12.75
2023-02-19T14:57:55.833Z,12.76
2023-02-19T15:07:56.297Z,12.67
2023-02-19T15:17:57.330Z,12.38
2023-02-19T15:28:00.192Z,12.18
2023-02-19T15:37:59.145Z,11.99
2023-02-19T15:48:02.193Z,11.82
2023-02-19T15:58:01.156Z,11.77
2023-02-19T16:08:04.384Z,11.67
2023-02-19T16:18:02.964Z,11.71
2023-02-19T16:28:03.912Z,11.63
2023-02-19T16:38:04.891Z,11.38
2023-02-19T16:48:05.829Z,11.06
2023-02-19T16:58:06.384Z,10.88
2023-02-19T17:08:07.578Z,10.54
2023-02-19T17:18:08.328Z,10.54
2023-02-19T17:28:08.950Z,10.46
2023-02-19T17:38:09.982Z,10.28
2023-02-19T17:48:11.214Z,10.13
2023-02-19T17:58:11.626Z,10.18
2023-02-19T18:08:14.084Z,10.10
2023-02-19T18:18:13.209Z,10.12
2023-02-19T18:38:14.821Z,9.78
2023-02-19T18:48:15.576Z,9.69
2023-02-19T18:58:16.377Z,9.60
2023-02-19T19:08:17.637Z,9.64
2023-02-19T19:18:20.090Z,9.55
2023-02-19T19:38:19.095Z,9.32
2023-02-19T19:48:21.987Z,9.34
2023-02-19T19:58:20.890Z,9.35
2023-02-19T20:08:22.198Z,9.04
2023-02-19T20:18:23.830Z,8.92
2023-02-19T20:28:22.794Z,8.84
2023-02-19T20:38:26.264Z,8.76
2023-02-19T20:48:24.026Z,8.68
2023-02-19T20:58:24.732Z,8.42
2023-02-19T21:08:26.672Z,8.33
2023-02-19T21:18:25.659Z,7.86
2023-02-19T21:28:26.329Z,7.59
2023-02-19T21:38:27.072Z,7.80
2023-02-19T21:48:27.583Z,7.36
2023-02-19T21:58:27.945Z,7.40
2023-02-19T22:08:28.553Z,7.06
2023-02-19T22:18:29.091Z,6.99
2023-02-19T22:28:29.528Z,6.81
2023-02-19T22:38:30.071Z,6.59
2023-02-19T22:48:30.592Z,6.36
2023-02-19T22:58:30.957Z,6.14
2023-02-19T23:08:31.433Z,6.13
2023-02-19T23:18:31.915Z,6.04
2023-02-19T23:28:32.376Z,5.81
2023-02-19T23:38:32.815Z,5.94
2023-02-19T23:48:33.283Z,5.80
2023-02-19T23:58:33.762Z,5.84
